Barcelona, Spain
Current Conditions -  °F | °C
As of 6:00 PM on Friday 24 Oct 2014 (Local Time) from LEBL Reporting Station
Clear Clear  
Wind Chill: 22°   Ceiling: Unl
Heat Index: 22°   Visibility: 6mi
Dew Point: 12°   Wind: 3mph
Humidity: 53%   Direction: 180°S
Pressure: 29.97"   Gusts: NA
Location:  41.39°N, 2.17°E
Report Text: LEBL 241600Z 18003KT 150V210 CAVOK 22/12 Q1015 NOSIG
Loading
Personal Weather Stations






























Interactive Weather Map
Tropical Storm Tracking
New forecast layout! Learn more

10-Day Weather Forecast

Advertisements
Track Severe Weather on mobile